Bolhede

EKBH · 南丹麦大区, 丹麦

罗盘
风向 的 风向 270° Bolhede 9/27
风: 12 kt, 4 beaufort

12 kt

2 kt
改变
0 ft 1.000 2.000 3.000 4.000 5.000
Cloud Cloud Cloud Cloud Cloud Cloud
BKN 3.000
METAR EKEB 231650Z 27012KT 9999 BKN030 06/01 Q1009

METAR Bolhede - EKBH

Bolhede是,丹麦中的格利德菲尔德。 该机场位于纬度55,63217和经度8,75526。 该机场有一条跑道: 9/27. 本场的ICAO机场代码为EKBH。 机场在Kobenhavn FIR中。

该航空气象观测是针对Esbjerg Airport在2024年4月23日 18:50, 当地时间进行的。

机场观察

风向为270°,速度为12 kt。

可见度为10 km 或者更多。

有碎云在3.000 ft的高度。 破损或更高的上限为3.000 ft。

温度为6 °C,阵风为1 °C。 露点为1 °C,相对湿度为71%。 海平面上的气压为1009 hPa (QNH)。

白天

今天,太阳从05:59升起,在20:47降落。 这适用于Bolhede,世界夏令时可能有所不同。 当地时间与世界标准时间之间的时差为+2 小时。 夏令时目前正在进行中。

公司介绍

我们没有关于这个机场的公司信息。

体会

到Vliegles.nl去找飞行课程,跳伞和其他飞行体验。 浏览页面,了解Bolhede附近所有可用的活动。 你也可以使用搜索功能来寻找你所在地附近的特定飞行课程、跳伞或其他飞行体验。

跑道

Id 标题 侧风 逆风 侧风 %
9/27 099°-279° 2 kt 12 kt 16 %

逆风成分最大的方向会被突出显示,并用于横风计算。 这并不一定意味着这个方向在使用。

乌云

3.000 ft BKN 碎云

温度 & 天气

温度 6 °C
露点 1 °C
相对湿度 71%
风寒 1 °C
Kp-index 2 (0-9)

白天

日出
06:00
中午
13:24
日落
20:47 (1:33)

小工具

你想在你的网站上有一个关于Bolhede的当前航空天气(METAR)的小部件吗?

显示HTML代码
报告变更